createdAt,value
2019-04-29T00:00:49.943Z,4.80
2019-04-29T00:03:17.751Z,4.50
2019-04-29T00:05:45.731Z,4.30
2019-04-29T00:08:14.741Z,4.20
2019-04-29T00:10:43.828Z,4.20
2019-04-29T00:13:12.224Z,4.40
2019-04-29T00:16:11.657Z,4.40
2019-04-29T00:18:58.848Z,4.40
2019-04-29T00:21:26.554Z,4.40
2019-04-29T00:24:03.592Z,4.50
2019-04-29T00:26:24.030Z,4.40
2019-04-29T00:28:51.689Z,4.20
2019-04-29T00:31:19.191Z,4.20
2019-04-29T00:33:46.790Z,4.10
2019-04-29T00:36:15.304Z,4.10
2019-04-29T00:39:05.628Z,4.30
2019-04-29T00:41:52.691Z,4.30
2019-04-29T00:44:21.418Z,4.40
2019-04-29T00:46:49.374Z,4.60
2019-04-29T00:49:26.776Z,4.60
2019-04-29T00:51:54.893Z,4.50
2019-04-29T00:54:30.700Z,4.30
2019-04-29T00:56:58.642Z,4.20
2019-04-29T00:59:26.519Z,4.10
2019-04-29T01:01:54.371Z,4.20
2019-04-29T01:04:21.980Z,4.30
2019-04-29T01:06:49.938Z,4.40
2019-04-29T01:09:17.854Z,4.40
2019-04-29T01:11:45.766Z,4.50
2019-04-29T01:14:13.380Z,4.60
2019-04-29T01:16:40.966Z,4.60
2019-04-29T01:19:09.033Z,4.50
2019-04-29T01:21:36.671Z,4.50
2019-04-29T01:24:04.428Z,4.60
2019-04-29T01:26:52.548Z,4.60
2019-04-29T01:29:21.162Z,4.70
2019-04-29T01:31:48.755Z,4.70
2019-04-29T01:34:21.278Z,4.40
2019-04-29T01:36:48.892Z,4.20
2019-04-29T01:39:16.845Z,4.10
2019-04-29T01:41:59.036Z,4.20
2019-04-29T01:44:27.941Z,4.30
2019-04-29T01:46:55.910Z,4.20
2019-04-29T01:49:23.910Z,4.20
2019-04-29T01:51:51.947Z,4.10
2019-04-29T01:54:19.783Z,4.00
2019-04-29T01:56:47.693Z,3.90
2019-04-29T01:59:15.605Z,3.90
2019-04-29T02:01:43.641Z,4.10
2019-04-29T02:04:11.206Z,4.40
2019-04-29T02:06:38.717Z,4.50
2019-04-29T02:09:10.520Z,4.50
2019-04-29T02:11:39.028Z,4.50
2019-04-29T02:14:07.061Z,4.40
2019-04-29T02:16:35.246Z,4.30
2019-04-29T02:19:02.824Z,4.10
2019-04-29T02:21:30.706Z,4.10
2019-04-29T02:24:23.859Z,3.90
2019-04-29T02:26:51.466Z,3.80
2019-04-29T02:29:19.070Z,3.70
2019-04-29T02:31:47.611Z,3.60
2019-04-29T02:34:15.548Z,3.70
2019-04-29T02:36:43.077Z,3.40
2019-04-29T02:39:28.892Z,3.40
2019-04-29T02:42:16.455Z,3.50
2019-04-29T02:44:44.919Z,3.40
2019-04-29T02:47:12.440Z,3.50
2019-04-29T02:49:40.040Z,3.30
2019-04-29T02:52:07.667Z,3.30
2019-04-29T02:54:36.288Z,3.40
2019-04-29T02:57:23.405Z,3.20
2019-04-29T02:59:54.079Z,3.20
2019-04-29T03:02:36.632Z,3.10
2019-04-29T03:05:15.959Z,3.00
2019-04-29T03:07:43.756Z,3.10
2019-04-29T03:10:12.092Z,3.10
2019-04-29T03:12:40.059Z,3.20
2019-04-29T03:15:08.863Z,3.20
2019-04-29T03:17:37.651Z,3.10
2019-04-29T03:20:26.596Z,3.10
2019-04-29T03:23:08.352Z,2.90
2019-04-29T03:25:35.981Z,2.80
2019-04-29T03:28:03.833Z,2.70
2019-04-29T03:30:31.577Z,2.80
2019-04-29T03:32:59.333Z,2.90
2019-04-29T03:35:27.060Z,3.10
2019-04-29T03:37:54.683Z,3.30
2019-04-29T03:40:22.261Z,3.20
2019-04-29T03:42:49.976Z,3.00
2019-04-29T03:45:17.674Z,3.00
2019-04-29T03:47:45.277Z,3.00
2019-04-29T03:50:12.851Z,2.90
2019-04-29T03:52:40.768Z,2.90
2019-04-29T03:55:08.568Z,2.90
2019-04-29T03:57:37.196Z,3.10
2019-04-29T04:00:05.708Z,3.20
2019-04-29T04:02:48.863Z,3.20
2019-04-29T04:05:38.966Z,3.10
2019-04-29T04:08:11.698Z,2.90
2019-04-29T04:10:39.517Z,2.80
2019-04-29T04:13:07.225Z,3.00
2019-04-29T04:15:34.862Z,3.00
2019-04-29T04:18:11.256Z,3.00
2019-04-29T04:20:39.183Z,2.90
2019-04-29T04:23:06.772Z,2.80
2019-04-29T04:25:34.958Z,2.80
2019-04-29T04:28:02.572Z,2.70
2019-04-29T04:30:30.478Z,2.70
2019-04-29T04:32:58.092Z,2.80
2019-04-29T04:35:26.329Z,2.80
2019-04-29T04:37:53.927Z,2.80
2019-04-29T04:40:28.142Z,3.00
2019-04-29T04:42:56.170Z,3.10
2019-04-29T04:45:23.762Z,3.20
2019-04-29T04:47:51.422Z,3.20
2019-04-29T04:50:19.022Z,3.20
2019-04-29T04:52:46.987Z,3.20
2019-04-29T04:55:14.811Z,3.20
2019-04-29T04:57:42.417Z,3.20
2019-04-29T05:03:04.918Z,3.20
2019-04-29T05:05:32.611Z,3.30
2019-04-29T05:08:00.434Z,3.40
2019-04-29T05:10:28.293Z,3.40
2019-04-29T05:12:55.933Z,3.40
2019-04-29T05:15:23.552Z,3.50
2019-04-29T05:17:53.184Z,3.50
2019-04-29T05:20:21.167Z,3.60
2019-04-29T05:23:01.103Z,3.60
2019-04-29T05:25:33.057Z,3.60
2019-04-29T05:28:01.299Z,3.80
2019-04-29T05:30:28.995Z,4.00
2019-04-29T05:32:56.620Z,4.20
2019-04-29T05:35:29.195Z,4.30
2019-04-29T05:38:07.577Z,4.50
2019-04-29T05:40:40.230Z,4.60
2019-04-29T05:43:10.040Z,4.60
2019-04-29T05:46:00.181Z,4.70
2019-04-29T05:48:32.001Z,4.80
2019-04-29T05:51:07.979Z,4.80
2019-04-29T05:53:39.623Z,4.90
2019-04-29T05:56:07.215Z,5.00
2019-04-29T05:58:37.832Z,5.30
2019-04-29T06:01:09.885Z,5.60
2019-04-29T06:03:39.498Z,5.80
2019-04-29T06:06:07.636Z,6.10
2019-04-29T06:08:39.203Z,6.20
2019-04-29T06:11:04.670Z,6.40
2019-04-29T06:13:32.315Z,6.60
2019-04-29T06:15:59.906Z,6.70
2019-04-29T06:18:27.504Z,6.90
2019-04-29T06:21:08.205Z,7.00
2019-04-29T06:23:25.016Z,7.30
2019-04-29T06:25:52.610Z,7.60
2019-04-29T06:28:21.780Z,7.70
2019-04-29T06:30:51.832Z,7.90
2019-04-29T06:33:19.731Z,8.30
2019-04-29T06:35:48.702Z,8.50
2019-04-29T06:38:17.070Z,8.60
2019-04-29T06:40:44.684Z,8.80
2019-04-29T06:43:12.456Z,9.30
2019-04-29T06:45:40.047Z,9.40
2019-04-29T06:48:07.649Z,9.70
2019-04-29T06:50:36.383Z,10.00
2019-04-29T06:53:05.281Z,10.20
2019-04-29T06:55:32.880Z,10.30
2019-04-29T06:58:00.574Z,10.00
2019-04-29T07:00:28.196Z,10.20
2019-04-29T07:02:57.656Z,10.70
2019-04-29T07:05:25.180Z,11.00
2019-04-29T07:07:52.762Z,10.90
2019-04-29T07:10:21.794Z,11.30
2019-04-29T07:12:50.119Z,11.40
2019-04-29T07:15:18.050Z,11.30
2019-04-29T07:17:46.014Z,11.30
2019-04-29T07:20:13.722Z,11.90
2019-04-29T07:22:41.312Z,12.60
2019-04-29T07:25:09.144Z,13.10
2019-04-29T07:27:43.007Z,13.50
2019-04-29T07:30:08.530Z,13.20
2019-04-29T07:32:36.068Z,13.60
2019-04-29T07:35:05.913Z,13.50
2019-04-29T07:37:35.567Z,13.40
2019-04-29T07:40:08.071Z,13.30
2019-04-29T07:42:34.308Z,13.60
2019-04-29T07:45:43.598Z,13.40
2019-04-29T07:48:06.167Z,13.40
2019-04-29T07:50:31.729Z,13.50
2019-04-29T07:52:59.665Z,13.60
2019-04-29T07:55:30.993Z,14.10
2019-04-29T07:57:56.922Z,14.60
2019-04-29T08:00:34.741Z,14.90
2019-04-29T08:03:05.343Z,15.30
2019-04-29T08:05:33.246Z,15.50
2019-04-29T08:08:01.015Z,15.20
2019-04-29T08:10:29.884Z,15.20
2019-04-29T08:12:58.922Z,15.10
2019-04-29T08:15:26.930Z,15.20
2019-04-29T08:18:05.977Z,15.10
2019-04-29T08:20:24.945Z,15.20
2019-04-29T08:22:52.903Z,15.00
2019-04-29T08:25:21.812Z,14.80
2019-04-29T08:27:50.055Z,14.80
2019-04-29T08:30:18.379Z,15.20
2019-04-29T08:32:46.244Z,15.80
2019-04-29T08:35:13.735Z,16.00
2019-04-29T08:37:41.334Z,16.10
2019-04-29T08:40:16.361Z,16.50
2019-04-29T08:42:46.563Z,15.80
2019-04-29T08:45:23.436Z,15.40
2019-04-29T08:47:50.929Z,15.20
2019-04-29T08:50:18.570Z,15.00
2019-04-29T08:52:46.345Z,15.10
2019-04-29T08:55:14.291Z,15.30
2019-04-29T08:57:42.482Z,15.50
2019-04-29T09:00:11.715Z,16.00
2019-04-29T09:02:41.254Z,16.70
2019-04-29T09:05:11.820Z,17.00
2019-04-29T09:07:40.237Z,17.40
2019-04-29T09:10:08.653Z,17.10
2019-04-29T09:12:36.284Z,16.80
2019-04-29T09:15:05.435Z,15.80
2019-04-29T09:17:33.337Z,15.40
2019-04-29T09:20:01.272Z,15.60
2019-04-29T09:22:31.291Z,16.30
2019-04-29T09:25:30.555Z,15.70
2019-04-29T09:28:00.035Z,15.90
2019-04-29T09:30:28.416Z,15.60
2019-04-29T09:32:56.035Z,15.20
2019-04-29T09:35:23.651Z,16.00
2019-04-29T09:37:53.833Z,17.00
2019-04-29T09:40:24.681Z,17.20
2019-04-29T09:46:18.434Z,15.90
2019-04-29T09:48:44.855Z,15.50
2019-04-29T09:51:17.857Z,15.20
2019-04-29T09:53:42.107Z,15.10
2019-04-29T09:56:10.411Z,15.10
2019-04-29T09:58:38.053Z,15.30
2019-04-29T10:01:24.237Z,15.70
2019-04-29T10:04:18.121Z,16.00
2019-04-29T10:06:47.250Z,15.90
2019-04-29T10:09:15.089Z,15.70
2019-04-29T10:11:42.715Z,15.40
2019-04-29T10:14:10.647Z,15.20
2019-04-29T10:16:59.933Z,15.00
2019-04-29T10:19:53.047Z,15.50
2019-04-29T10:22:20.938Z,16.90
2019-04-29T10:24:48.468Z,18.10
2019-04-29T10:27:16.272Z,18.80
2019-04-29T10:29:46.651Z,19.30
2019-04-29T10:32:17.200Z,19.80
2019-04-29T10:34:48.617Z,20.30
2019-04-29T10:37:16.941Z,19.00
2019-04-29T10:40:11.307Z,18.50
2019-04-29T10:42:59.039Z,18.50
2019-04-29T10:45:40.438Z,17.50
2019-04-29T10:48:26.903Z,16.90
2019-04-29T10:50:55.666Z,16.30
2019-04-29T10:53:23.635Z,15.80
2019-04-29T10:55:51.843Z,16.00
2019-04-29T10:58:22.491Z,17.50
2019-04-29T11:02:00.663Z,18.60
2019-04-29T11:04:17.760Z,19.40
2019-04-29T11:06:45.386Z,20.70
2019-04-29T11:09:31.499Z,20.90
2019-04-29T11:11:59.437Z,21.60
2019-04-29T11:14:27.344Z,21.60
